Time;durP1;ratioP1;P1;durP2;ratioP2;P2;SDS_P1;SDS_P2;PMS_P1;PMS_P2;Temp;Humidity;BMP_temperature;BMP_pressure;BME280_temperature;BME280_humidity;BME280_pressure;Samples;Min_cycle;Max_cycle;Signal;HPM_P1;HPM_P2
2023/10/04 00:00:15;;;;;;;11.68;6.00;;;;;;;17.75;47.13;100434.19;5054144;28;20505;-45
2023/10/04 00:02:49;;;;;;;11.52;6.10;;;;;;;17.90;47.08;100433.75;5054465;28;20039;-45
2023/10/04 00:05:16;;;;;;;12.88;6.05;;;;;;;17.84;47.04;100438.19;5054620;28;20500;-45
2023/10/04 00:07:46;;;;;;;14.20;5.63;;;;;;;17.86;46.63;100429.88;5054009;28;20468;-42
2023/10/04 00:10:12;;;;;;;11.15;5.68;;;;;;;17.93;46.54;100423.34;5054293;28;20029;-42
2023/10/04 00:12:38;;;;;;;9.52;5.15;;;;;;;17.93;46.72;100417.94;5052976;28;20461;-46
2023/10/04 00:15:26;;;;;;;12.85;5.68;;;;;;;17.90;46.30;100409.53;5052730;28;20024;-46
2023/10/04 00:17:52;;;;;;;14.02;5.50;;;;;;;18.04;46.67;100416.28;5052797;28;20439;-44
2023/10/04 00:20:19;;;;;;;12.35;5.28;;;;;;;17.97;45.50;100410.19;5052604;28;20033;-42
2023/10/04 00:22:46;;;;;;;8.15;4.80;;;;;;;17.87;45.82;100410.78;5052481;28;20108;-44
2023/10/04 00:25:22;;;;;;;11.68;5.13;;;;;;;17.76;46.00;100414.28;5052471;28;20029;-43
2023/10/04 00:27:49;;;;;;;9.50;5.00;;;;;;;17.69;46.03;100413.59;5053466;28;20031;-42
2023/10/04 00:30:16;;;;;;;9.98;5.32;;;;;;;17.74;46.30;100413.69;5053664;28;20055;-43
2023/10/04 00:32:43;;;;;;;13.10;5.07;;;;;;;17.66;46.42;100414.88;5053854;28;20035;-45
2023/10/04 00:35:11;;;;;;;13.02;5.05;;;;;;;17.52;45.94;100408.91;5053793;28;20465;-43
2023/10/04 00:37:37;;;;;;;10.57;5.05;;;;;;;17.37;46.44;100411.22;5053964;28;20346;-45
2023/10/04 00:40:09;;;;;;;11.88;5.57;;;;;;;17.42;47.11;100411.34;5053492;28;20480;-45
2023/10/04 00:42:35;;;;;;;12.68;5.35;;;;;;;17.45;46.23;100413.56;5053639;28;20025;-45
2023/10/04 00:45:01;;;;;;;11.23;5.38;;;;;;;17.32;45.75;100408.41;5053769;28;20190;-42
2023/10/04 00:47:27;;;;;;;10.98;5.10;;;;;;;17.43;46.07;100409.47;5053699;28;20104;-43
2023/10/04 00:49:55;;;;;;;11.05;5.32;;;;;;;17.45;45.88;100404.69;5053877;28;20350;-42
2023/10/04 00:52:21;;;;;;;9.52;5.38;;;;;;;17.41;45.99;100404.31;5053332;28;20472;-42
2023/10/04 00:54:46;;;;;;;12.13;5.07;;;;;;;17.41;46.50;100404.31;5053133;28;20029;-42
2023/10/04 00:57:12;;;;;;;9.93;4.93;;;;;;;17.40;46.14;100399.97;5053499;28;20025;-43
2023/10/04 00:59:37;;;;;;;12.68;5.20;;;;;;;17.37;46.71;100405.84;5053089;28;20056;-43
2023/10/04 01:02:03;;;;;;;10.05;5.10;;;;;;;17.43;46.69;100402.22;5053324;28;20032;-42
2023/10/04 01:04:28;;;;;;;10.05;5.15;;;;;;;17.32;46.03;100392.25;5053066;28;20021;-42
2023/10/04 01:06:54;;;;;;;11.60;5.93;;;;;;;17.31;46.47;100390.63;5052748;28;20400;-44
2023/10/04 01:09:23;;;;;;;11.02;5.05;;;;;;;17.30;46.26;100391.69;5053142;28;20033;-45
2023/10/04 01:11:48;;;;;;;11.07;5.68;;;;;;;17.34;46.55;100395.53;5052967;28;20021;-45
2023/10/04 01:14:25;;;;;;;12.95;5.63;;;;;;;17.19;46.83;100395.97;5053033;28;20362;-44
2023/10/04 01:16:52;;;;;;;12.48;5.85;;;;;;;17.28;46.87;100399.16;5052937;28;20197;-43
2023/10/04 01:19:17;;;;;;;13.30;6.13;;;;;;;17.24;46.77;100400.69;5053204;28;20048;-44
2023/10/04 01:21:45;;;;;;;14.40;6.18;;;;;;;17.41;46.00;100404.31;5052567;28;20057;-45
2023/10/04 01:24:11;;;;;;;14.18;5.45;;;;;;;17.21;46.49;100385.84;5053024;28;20028;-44
2023/10/04 01:26:37;;;;;;;12.93;5.60;;;;;;;17.02;47.03;100400.38;5053206;28;20028;-42
2023/10/04 01:29:08;;;;;;;10.27;5.80;;;;;;;17.01;46.84;100402.25;5052952;28;20029;-44
2023/10/04 01:31:35;;;;;;;9.35;5.20;;;;;;;16.91;48.02;100410.09;5052844;28;20032;-42
2023/10/04 01:34:01;;;;;;;12.07;5.60;;;;;;;17.02;47.36;100403.91;5052515;28;20028;-41
2023/10/04 01:36:26;;;;;;;16.75;5.70;;;;;;;16.86;47.67;100416.13;5052936;28;20020;-46
2023/10/04 01:38:53;;;;;;;13.88;5.80;;;;;;;16.85;48.42;100413.66;5052884;28;20021;-42
2023/10/04 01:41:19;;;;;;;10.48;5.60;;;;;;;16.94;48.71;100412.28;5052398;28;20017;-44
2023/10/04 01:43:45;;;;;;;13.23;5.82;;;;;;;16.93;48.43;100414.16;5052572;28;20100;-43
2023/10/04 01:46:12;;;;;;;10.40;5.50;;;;;;;16.89;48.92;100404.94;5052712;28;20032;-44
2023/10/04 01:48:37;;;;;;;10.85;6.15;;;;;;;17.11;48.36;100410.56;5052417;28;20522;-43
2023/10/04 01:51:04;;;;;;;11.02;5.53;;;;;;;16.90;49.13;100411.13;5052368;28;20095;-45
2023/10/04 01:53:33;;;;;;;10.90;5.85;;;;;;;16.97;48.76;100409.16;5051920;28;20035;-45
2023/10/04 01:55:58;;;;;;;10.80;5.93;;;;;;;16.98;48.86;100408.09;5052555;28;20021;-46
2023/10/04 01:58:24;;;;;;;11.95;6.03;;;;;;;17.16;49.46;100416.09;5052155;28;20491;-42
2023/10/04 02:00:50;;;;;;;12.25;6.68;;;;;;;17.10;49.15;100410.84;5042936;28;20075;-44
2023/10/04 02:03:16;;;;;;;12.05;6.03;;;;;;;17.22;48.57;100403.59;5032245;28;20029;-43
2023/10/04 02:05:42;;;;;;;13.90;6.50;;;;;;;17.15;48.38;100402.88;5031551;28;20052;-44
2023/10/04 02:08:09;;;;;;;12.02;6.30;;;;;;;17.10;48.03;100405.47;5031630;28;20022;-43
2023/10/04 02:10:35;;;;;;;12.75;6.40;;;;;;;17.09;48.79;100401.13;5032391;28;20104;-43
2023/10/04 02:13:02;;;;;;;17.02;10.10;;;;;;;17.03;48.27;100404.72;5032026;28;20158;-45
2023/10/04 02:15:27;;;;;;;17.15;8.15;;;;;;;16.81;48.29;100399.81;5031774;28;20036;-46
2023/10/04 02:17:53;;;;;;;13.70;6.75;;;;;;;16.87;48.90;100416.94;5031354;28;20097;-46
2023/10/04 02:20:28;;;;;;;16.65;7.10;;;;;;;16.80;48.92;100412.44;5031702;28;20021;-49
2023/10/04 02:22:57;;;;;;;54.17;26.80;;;;;;;16.46;49.40;100408.56;5048700;28;20028;-46
2023/10/04 02:25:23;;;;;;;33.58;17.10;;;;;;;16.40;50.26;100412.16;5051868;28;20025;-45
2023/10/04 02:27:52;;;;;;;20.42;10.80;;;;;;;16.33;50.44;100411.41;5051703;28;20029;-47
2023/10/04 02:30:23;;;;;;;16.05;6.97;;;;;;;16.49;50.16;100410.81;5051436;28;20488;-46
2023/10/04 02:32:52;;;;;;;13.43;6.80;;;;;;;16.63;50.48;100408.75;5051857;28;20126;-45
2023/10/04 02:35:26;;;;;;;13.85;6.78;;;;;;;16.74;49.66;100409.88;5051439;28;20024;-45
2023/10/04 02:37:54;;;;;;;15.25;6.13;;;;;;;16.71;49.71;100407.63;5051418;28;20410;-43
2023/10/04 02:40:27;;;;;;;12.82;6.75;;;;;;;16.75;50.16;100409.66;5051273;28;20029;-44
2023/10/04 02:42:57;;;;;;;14.82;6.45;;;;;;;16.72;49.92;100409.28;5051354;28;20028;-44
2023/10/04 02:45:24;;;;;;;16.90;6.72;;;;;;;16.50;50.61;100403.56;5051057;28;20029;-43
2023/10/04 02:47:52;;;;;;;12.48;6.28;;;;;;;16.46;49.57;100402.38;5051379;28;20033;-44
2023/10/04 02:50:19;;;;;;;15.10;6.57;;;;;;;16.17;49.52;100377.94;5050591;28;20031;-45
2023/10/04 02:52:45;;;;;;;13.40;6.30;;;;;;;16.45;49.97;100404.25;5050880;28;20029;-43
2023/10/04 02:55:17;;;;;;;11.80;6.38;;;;;;;16.27;50.34;100402.38;5051478;28;20151;-45
2023/10/04 02:57:44;;;;;;;19.88;10.55;;;;;;;16.33;49.01;100406.03;5050994;28;20044;-43
2023/10/04 03:00:15;;;;;;;11.73;6.47;;;;;;;16.40;49.49;100404.91;5051158;28;20049;-46
2023/10/04 03:02:42;;;;;;;13.30;6.65;;;;;;;16.29;50.25;100397.59;5051000;28;20037;-45
2023/10/04 03:05:08;;;;;;;11.80;6.43;;;;;;;16.30;50.27;100403.81;5051111;28;20021;-43
2023/10/04 03:07:33;;;;;;;13.10;5.93;;;;;;;16.32;50.16;100407.91;5051067;28;20052;-45
2023/10/04 03:09:59;;;;;;;12.02;6.30;;;;;;;16.33;49.51;100403.34;5050974;28;20484;-46
2023/10/04 03:12:24;;;;;;;13.90;5.93;;;;;;;16.24;49.28;100405.53;5050771;28;20027;-47
2023/10/04 03:14:50;;;;;;;12.43;6.07;;;;;;;16.26;49.33;100406.13;5051379;28;20125;-44
2023/10/04 03:17:16;;;;;;;10.60;5.97;;;;;;;16.30;49.70;100401.13;5051055;28;20053;-42
2023/10/04 03:19:42;;;;;;;11.18;6.28;;;;;;;16.21;48.92;100393.38;5050861;28;20056;-42
2023/10/04 03:22:08;;;;;;;10.43;5.85;;;;;;;16.34;49.21;100403.13;5051211;28;20037;-42
2023/10/04 03:24:34;;;;;;;11.00;5.53;;;;;;;16.18;49.16;100403.72;5050990;28;20021;-44
2023/10/04 03:27:00;;;;;;;16.08;5.95;;;;;;;15.80;50.03;100386.81;5051032;28;20025;-45
2023/10/04 03:29:28;;;;;;;11.60;6.10;;;;;;;15.89;49.41;100406.13;5053836;28;20028;-43
2023/10/04 03:31:53;;;;;;;13.75;6.18;;;;;;;16.00;50.22;100407.25;5054974;28;20147;-45
2023/10/04 03:34:22;;;;;;;12.60;6.57;;;;;;;15.69;49.90;100400.09;5054677;28;20020;-42
2023/10/04 03:36:48;;;;;;;12.70;6.07;;;;;;;15.71;49.88;100406.06;5055341;28;20107;-43
2023/10/04 03:39:16;;;;;;;14.43;6.15;;;;;;;15.70;50.31;100405.22;5054883;28;20453;-44
2023/10/04 03:41:42;;;;;;;12.20;6.32;;;;;;;15.76;50.02;100409.78;5055151;28;20102;-41
2023/10/04 03:44:07;;;;;;;13.52;6.43;;;;;;;15.73;50.19;100402.16;5054941;28;20028;-44
2023/10/04 03:46:33;;;;;;;11.60;6.25;;;;;;;15.78;49.98;100406.84;5054611;28;20061;-41
2023/10/04 03:48:59;;;;;;;16.35;5.97;;;;;;;15.90;49.62;100407.75;5054804;28;20031;-43
2023/10/04 03:51:24;;;;;;;16.35;6.65;;;;;;;15.89;50.59;100414.16;5054674;28;20090;-46
2023/10/04 03:53:51;;;;;;;13.45;5.93;;;;;;;15.93;49.68;100410.00;5054340;28;20035;-46
2023/10/04 03:56:17;;;;;;;13.00;5.97;;;;;;;15.86;49.85;100413.78;5054292;28;20116;-45
2023/10/04 03:58:44;;;;;;;12.77;6.10;;;;;;;15.76;50.50;100406.25;5054483;28;20085;-45
2023/10/04 04:01:10;;;;;;;11.95;6.32;;;;;;;16.35;52.70;100410.13;5054309;28;20045;-42
2023/10/04 04:03:36;;;;;;;14.23;6.18;;;;;;;16.47;49.69;100406.69;5054754;28;20063;-43
2023/10/04 04:06:02;;;;;;;12.68;7.07;;;;;;;16.49;49.04;100405.44;5054417;28;20462;-45
2023/10/04 04:08:27;;;;;;;12.55;6.90;;;;;;;16.51;48.32;100410.59;5053614;28;20090;-46
2023/10/04 04:10:53;;;;;;;14.18;6.30;;;;;;;16.39;48.97;100405.97;5053668;28;20405;-43
2023/10/04 04:13:19;;;;;;;14.32;7.10;;;;;;;16.27;49.63;100415.00;5053891;28;20031;-44
2023/10/04 04:15:45;;;;;;;15.50;7.10;;;;;;;16.27;49.06;100415.81;5053601;28;20025;-44
2023/10/04 04:18:16;;;;;;;12.68;6.45;;;;;;;16.21;48.92;100397.94;5053599;28;20504;-44
2023/10/04 04:20:41;;;;;;;15.50;7.15;;;;;;;16.16;49.41;100401.28;5053804;28;20021;-43
2023/10/04 04:23:10;;;;;;;24.77;13.05;;;;;;;15.80;50.05;100402.91;5053108;28;20401;-45
2023/10/04 04:25:36;;;;;;;16.97;8.70;;;;;;;15.94;50.27;100400.09;5053689;28;20025;-44
2023/10/04 04:28:02;;;;;;;18.48;7.40;;;;;;;15.97;49.91;100402.31;5053436;28;20265;-44
2023/10/04 04:30:31;;;;;;;19.02;6.97;;;;;;;15.83;50.75;100402.44;5053984;28;20040;-44
2023/10/04 04:32:57;;;;;;;12.88;6.30;;;;;;;15.75;53.18;100400.06;5052708;28;20108;-43
2023/10/04 04:38:16;;;;;;;15.75;6.57;;;;;;;15.93;52.06;100406.50;5073777;28;20028;-43
2023/10/04 04:40:49;;;;;;;13.77;6.68;;;;;;;15.88;51.15;100406.31;5050329;28;20511;-44
2023/10/04 04:45:51;;;;;;;10.27;6.18;;;;;;;15.98;50.76;100410.16;5057601;28;20174;-44
2023/10/04 04:48:25;;;;;;;14.80;7.20;;;;;;;15.95;51.32;100417.81;5067455;28;20446;-45
2023/10/04 04:50:57;;;;;;;18.67;7.10;;;;;;;16.14;51.09;100418.66;5056057;28;20025;-44
2023/10/04 04:53:24;;;;;;;14.18;6.78;;;;;;;16.48;50.56;100411.84;5053932;28;20061;-45
2023/10/04 04:55:50;;;;;;;16.02;6.63;;;;;;;16.79;49.88;100416.19;5053847;28;20071;-42
2023/10/04 04:58:22;;;;;;;13.18;6.75;;;;;;;17.05;49.44;100406.13;5053578;28;20024;-43
2023/10/04 05:00:50;;;;;;;17.33;7.15;;;;;;;16.94;50.18;100415.78;5053027;28;20143;-43
2023/10/04 05:03:19;;;;;;;14.82;7.35;;;;;;;17.37;49.34;100411.22;5052796;28;20468;-44
2023/10/04 05:05:45;;;;;;;24.65;8.25;;;;;;;17.68;49.01;100415.44;5052766;28;20021;-43
2023/10/04 05:08:10;;;;;;;12.50;6.38;;;;;;;17.95;47.57;100412.31;5053044;28;20028;-44
2023/10/04 05:10:40;;;;;;;15.38;6.55;;;;;;;18.43;46.27;100415.72;5052685;28;20018;-44
2023/10/04 05:13:09;;;;;;;14.32;6.13;;;;;;;18.70;45.44;100414.09;5058487;28;20115;-43
2023/10/04 05:15:38;;;;;;;15.02;6.78;;;;;;;18.93;46.21;100415.09;5050161;28;20100;-42
2023/10/04 05:18:04;;;;;;;12.40;6.63;;;;;;;19.18;44.49;100417.41;5051332;28;20025;-46
2023/10/04 05:20:32;;;;;;;17.50;7.43;;;;;;;19.30;43.75;100414.63;5051226;28;20166;-44
2023/10/04 05:23:00;;;;;;;12.55;5.95;;;;;;;19.79;46.05;100408.66;5052507;28;20024;-44
2023/10/04 05:25:29;;;;;;;15.80;6.75;;;;;;;20.12;41.91;100423.97;5052648;28;20101;-45
2023/10/04 05:28:05;;;;;;;14.73;6.45;;;;;;;20.37;41.82;100422.66;5052959;28;20021;-45
2023/10/04 05:30:31;;;;;;;16.75;6.95;;;;;;;20.39;41.85;100429.47;5051363;28;20032;-43
2023/10/04 05:32:59;;;;;;;12.13;6.20;;;;;;;20.88;41.04;100429.47;5051569;28;20401;-42
2023/10/04 05:35:26;;;;;;;12.73;6.05;;;;;;;21.19;39.74;100443.31;5049404;28;20033;-42
2023/10/04 05:37:51;;;;;;;14.40;6.40;;;;;;;21.39;39.92;100426.41;5051678;28;20498;-41
2023/10/04 05:40:19;;;;;;;15.55;6.75;;;;;;;21.54;38.89;100425.75;5051809;28;20025;-41
2023/10/04 05:42:44;;;;;;;13.32;7.10;;;;;;;21.80;38.49;100432.16;5049298;28;20036;-42
2023/10/04 05:45:11;;;;;;;14.52;6.78;;;;;;;21.96;38.57;100435.75;5047761;28;20036;-44
2023/10/04 05:47:38;;;;;;;14.43;7.43;;;;;;;22.33;37.57;100445.75;5051096;28;20035;-41
2023/10/04 05:50:22;;;;;;;11.77;7.03;;;;;;;22.39;37.31;100441.13;5052616;28;20461;-40
2023/10/04 05:52:48;;;;;;;16.85;6.30;;;;;;;22.72;36.44;100442.63;5051467;28;20121;-41
2023/10/04 05:55:16;;;;;;;12.55;6.70;;;;;;;22.90;36.48;100444.00;5052002;28;20025;-40
2023/10/04 05:57:44;;;;;;;11.88;6.93;;;;;;;23.23;36.23;100447.34;5052206;28;20108;-42
2023/10/04 06:00:27;;;;;;;18.05;6.45;;;;;;;23.40;35.59;100453.31;5051837;28;20059;-45
2023/10/04 06:03:06;;;;;;;12.70;6.25;;;;;;;23.57;35.20;100446.78;5051835;28;20481;-42
2023/10/04 06:05:34;;;;;;;15.52;6.72;;;;;;;23.96;34.46;100446.22;5050007;28;20432;-42
2023/10/04 06:08:06;;;;;;;15.60;6.57;;;;;;;24.18;33.96;100443.97;5050451;28;20029;-44
2023/10/04 06:10:32;;;;;;;17.60;7.28;;;;;;;24.63;33.38;100451.44;5050725;28;20086;-44
2023/10/04 06:12:59;;;;;;;11.10;6.18;;;;;;;24.97;33.04;100449.59;5050796;28;20052;-44
2023/10/04 06:15:25;;;;;;;13.43;6.97;;;;;;;24.94;32.85;100449.34;5050426;28;20094;-41
2023/10/04 06:17:52;;;;;;;11.23;6.32;;;;;;;24.93;33.06;100453.97;5050865;28;20455;-42
2023/10/04 06:20:28;;;;;;;12.52;6.10;;;;;;;25.31;32.13;100454.28;5051604;28;20146;-46
2023/10/04 06:23:14;;;;;;;12.32;6.13;;;;;;;25.66;31.47;100444.16;5051689;28;20033;-41
2023/10/04 06:25:45;;;;;;;15.20;6.80;;;;;;;25.80;31.62;100447.03;5051759;28;20028;-42
2023/10/04 06:28:11;;;;;;;13.40;6.85;;;;;;;26.00;31.42;100451.47;5051582;28;20404;-44
2023/10/04 06:30:38;;;;;;;18.20;7.78;;;;;;;25.95;30.77;100437.91;5051777;28;20477;-44
2023/10/04 06:33:06;;;;;;;14.27;7.07;;;;;;;26.24;30.90;100448.75;5051412;28;20025;-44
2023/10/04 06:35:32;;;;;;;14.48;6.72;;;;;;;26.51;29.79;100448.13;5051460;28;20052;-43
2023/10/04 06:38:04;;;;;;;14.27;6.40;;;;;;;26.63;29.24;100433.28;5051446;28;20416;-44
2023/10/04 06:40:33;;;;;;;11.60;5.95;;;;;;;26.59;29.43;100437.69;5051501;28;20089;-44
2023/10/04 06:43:01;;;;;;;9.32;5.53;;;;;;;27.18;28.67;100441.72;5051870;28;20048;-43
2023/10/04 06:45:27;;;;;;;9.85;5.50;;;;;;;27.61;28.17;100438.06;5051421;28;20485;-44
2023/10/04 06:47:54;;;;;;;11.82;5.75;;;;;;;27.79;27.82;100436.34;5051370;28;20025;-44
2023/10/04 06:50:22;;;;;;;14.73;6.22;;;;;;;28.05;27.89;100431.25;5051235;28;20033;-43
2023/10/04 06:52:49;;;;;;;14.68;6.38;;;;;;;28.19;27.65;100434.75;5051155;28;20032;-44
2023/10/04 06:55:16;;;;;;;13.60;6.10;;;;;;;28.39;27.36;100425.34;5051465;28;20083;-43
2023/10/04 06:57:43;;;;;;;11.27;6.32;;;;;;;28.16;27.07;100431.81;5051317;28;20032;-42
2023/10/04 07:00:15;;;;;;;14.25;6.22;;;;;;;28.38;26.94;100431.91;5051290;28;20429;-42
2023/10/04 07:02:45;;;;;;;12.25;5.88;;;;;;;28.70;26.96;100440.31;5050675;28;20032;-41
2023/10/04 07:05:19;;;;;;;13.63;5.78;;;;;;;28.65;26.89;100433.00;5051043;28;20056;-43
2023/10/04 07:07:46;;;;;;;12.75;5.82;;;;;;;28.52;27.17;100436.56;5050781;28;20480;-43
2023/10/04 07:10:16;;;;;;;9.60;5.28;;;;;;;28.73;26.97;100429.53;5050838;28;20502;-44
2023/10/04 07:12:45;;;;;;;10.85;5.72;;;;;;;28.86;27.00;100433.34;5051256;28;20514;-43
2023/10/04 07:15:12;;;;;;;13.20;6.00;;;;;;;28.72;27.10;100427.91;5051155;28;20091;-43
2023/10/04 07:17:41;;;;;;;13.35;6.55;;;;;;;29.15;26.77;100432.13;5050872;28;20087;-41
2023/10/04 07:20:15;;;;;;;11.90;5.95;;;;;;;28.93;27.66;100430.19;5050737;28;20041;-46
2023/10/04 07:23:03;;;;;;;11.13;5.90;;;;;;;29.33;26.54;100433.88;5050950;28;20025;-43
2023/10/04 07:25:34;;;;;;;10.15;5.75;;;;;;;29.26;26.91;100424.47;5051287;28;20056;-43
2023/10/04 07:28:02;;;;;;;12.60;5.80;;;;;;;29.02;27.20;100418.16;5050830;28;20083;-48
2023/10/04 07:30:33;;;;;;;13.25;6.05;;;;;;;29.20;26.72;100421.84;5051002;28;20025;-44
2023/10/04 07:32:59;;;;;;;9.77;5.63;;;;;;;28.78;27.70;100423.94;5050747;28;20060;-44
2023/10/04 07:35:26;;;;;;;8.20;5.32;;;;;;;29.25;26.91;100412.72;5050573;28;20056;-45
2023/10/04 07:37:56;;;;;;;10.75;5.72;;;;;;;29.17;26.81;100413.47;5050294;28;20511;-46
2023/10/04 07:40:23;;;;;;;12.65;5.80;;;;;;;29.10;27.11;100427.56;5050398;28;20021;-46
2023/10/04 07:42:53;;;;;;;10.90;5.90;;;;;;;29.77;26.72;100417.69;5050255;28;20031;-47
2023/10/04 07:45:20;;;;;;;12.18;6.03;;;;;;;29.86;25.99;100415.00;5050961;28;20024;-43
2023/10/04 07:47:46;;;;;;;11.93;5.80;;;;;;;29.55;26.84;100419.34;5050419;28;20373;-44
2023/10/04 07:50:15;;;;;;;9.85;5.88;;;;;;;29.81;26.52;100418.66;5050639;28;20029;-46
2023/10/04 07:52:42;;;;;;;11.57;5.75;;;;;;;30.14;26.01;100416.38;5050299;28;20479;-44
2023/10/04 07:55:18;;;;;;;10.98;5.60;;;;;;;29.70;26.75;100412.66;5050510;28;20027;-48
2023/10/04 07:58:04;;;;;;;10.20;5.55;;;;;;;30.07;25.79;100421.50;5050590;28;20022;-45
2023/10/04 08:00:31;;;;;;;12.70;5.78;;;;;;;29.88;26.48;100418.22;5050332;28;20068;-44
2023/10/04 08:02:57;;;;;;;10.50;6.00;;;;;;;30.47;25.85;100406.94;5050538;28;20057;-42
2023/10/04 08:05:31;;;;;;;11.20;5.50;;;;;;;30.34;26.01;100409.50;5050763;28;20101;-42
2023/10/04 08:08:01;;;;;;;11.07;6.13;;;;;;;30.69;25.71;100409.53;5050454;28;20032;-43
2023/10/04 08:10:31;;;;;;;10.77;5.53;;;;;;;30.46;25.72;100399.81;5050551;28;20032;-45
2023/10/04 08:13:02;;;;;;;9.60;5.53;;;;;;;30.54;25.42;100399.00;5050166;28;20080;-46
2023/10/04 08:15:32;;;;;;;9.60;5.47;;;;;;;30.64;25.58;100397.91;5051137;28;20082;-42
2023/10/04 08:17:58;;;;;;;9.70;5.68;;;;;;;30.80;25.71;100396.28;5053636;28;20048;-43
2023/10/04 08:20:29;;;;;;;13.02;5.65;;;;;;;30.72;25.78;100391.59;5053458;28;20556;-47
2023/10/04 08:22:57;;;;;;;12.32;5.30;;;;;;;30.85;25.31;100395.31;5051655;28;20026;-42
2023/10/04 08:25:29;;;;;;;15.82;5.75;;;;;;;31.18;24.73;100392.88;5052879;28;20037;-44
2023/10/04 08:27:55;;;;;;;11.95;5.60;;;;;;;31.65;24.62;100381.91;5050822;28;20028;-45
2023/10/04 08:30:21;;;;;;;11.93;6.15;;;;;;;31.33;24.77;100386.03;5054574;28;20079;-46
2023/10/04 08:32:48;;;;;;;9.82;5.18;;;;;;;31.58;24.42;100375.31;5054660;28;20036;-44
2023/10/04 08:38:09;;;;;;;9.07;5.20;;;;;;;31.39;24.93;100373.72;5038443;28;20034;-44
2023/10/04 08:40:39;;;;;;;11.80;5.68;;;;;;;31.32;24.92;100373.41;5039782;28;20024;-45
2023/10/04 08:43:06;;;;;;;11.25;5.78;;;;;;;31.17;24.94;100375.56;5050993;28;20025;-47
2023/10/04 08:45:34;;;;;;;11.70;5.35;;;;;;;31.59;24.18;100366.75;5053802;28;20024;-50
2023/10/04 08:48:00;;;;;;;10.43;5.30;;;;;;;31.53;24.56;100363.38;5053650;28;20060;-46
2023/10/04 08:50:43;;;;;;;13.07;5.80;;;;;;;30.58;25.01;100365.09;5053502;28;20029;-48
2023/10/04 08:53:24;;;;;;;7.95;5.47;;;;;;;31.01;24.76;100359.94;5051570;28;20044;-44
2023/10/04 08:55:53;;;;;;;9.48;5.15;;;;;;;31.15;25.04;100355.84;5051734;28;20467;-44
2023/10/04 08:58:20;;;;;;;12.93;5.65;;;;;;;31.51;24.58;100357.38;5053386;28;20025;-42
2023/10/04 09:00:48;;;;;;;13.38;5.47;;;;;;;31.79;24.35;100351.41;5053320;28;20051;-45
2023/10/04 09:03:15;;;;;;;9.50;5.47;;;;;;;31.77;24.36;100351.75;5053242;28;20037;-45
2023/10/04 09:05:46;;;;;;;9.25;5.88;;;;;;;31.85;24.22;100347.31;5049045;28;20021;-45
2023/10/04 09:08:16;;;;;;;11.20;5.78;;;;;;;32.05;23.78;100334.78;5052800;28;20040;-43
2023/10/04 09:10:42;;;;;;;10.13;5.68;;;;;;;31.96;23.62;100337.56;5052738;28;20017;-46
2023/10/04 09:13:09;;;;;;;10.05;5.32;;;;;;;32.20;23.39;100332.59;5052947;28;20021;-43
2023/10/04 09:15:35;;;;;;;10.35;5.60;;;;;;;32.01;23.86;100331.06;5052485;28;20033;-45
2023/10/04 09:18:03;;;;;;;11.82;6.28;;;;;;;32.32;23.41;100327.16;5052672;28;20020;-44
2023/10/04 09:20:35;;;;;;;10.77;5.78;;;;;;;32.11;23.87;100321.63;5052971;28;20120;-44
2023/10/04 09:23:14;;;;;;;8.88;5.70;;;;;;;32.19;23.35;100322.72;5052670;28;20491;-43
2023/10/04 09:25:40;;;;;;;9.73;5.80;;;;;;;32.37;23.46;100326.94;5052372;28;20473;-44
2023/10/04 09:28:09;;;;;;;10.52;5.43;;;;;;;32.01;24.26;100314.56;5052607;28;20567;-45
2023/10/04 09:30:36;;;;;;;15.93;6.72;;;;;;;32.38;23.55;100322.25;5052445;28;20032;-44
2023/10/04 09:33:20;;;;;;;11.10;6.30;;;;;;;32.63;23.34;100323.19;5052045;28;20024;-49
2023/10/04 09:35:45;;;;;;;12.60;6.13;;;;;;;32.65;22.92;100318.97;5051206;28;20112;-43
2023/10/04 09:38:15;;;;;;;9.55;5.70;;;;;;;32.79;22.68;100320.63;5048157;28;20104;-43
2023/10/04 09:40:51;;;;;;;11.35;5.65;;;;;;;33.14;22.96;100312.00;5052475;28;20023;-48
2023/10/04 09:43:17;;;;;;;10.38;5.50;;;;;;;33.22;23.03;100319.34;5049839;28;20100;-48
2023/10/04 09:45:59;;;;;;;9.75;5.25;;;;;;;33.27;23.29;100314.41;5049609;28;20112;-46
2023/10/04 09:48:31;;;;;;;8.52;5.40;;;;;;;33.16;22.80;100315.22;5049882;28;20025;-44
2023/10/04 09:51:00;;;;;;;11.30;5.78;;;;;;;32.64;23.28;100309.06;5051321;28;20408;-43
2023/10/04 09:53:25;;;;;;;13.52;6.20;;;;;;;32.50;23.26;100303.84;5052021;28;20020;-46
2023/10/04 09:55:53;;;;;;;12.13;5.80;;;;;;;32.30;23.51;100299.94;5050944;28;20108;-44
2023/10/04 09:58:23;;;;;;;11.65;5.55;;;;;;;32.75;23.24;100303.13;5051310;28;20489;-45
2023/10/04 10:00:52;;;;;;;13.00;5.95;;;;;;;32.38;23.15;100294.72;5050719;28;20489;-44
2023/10/04 10:03:25;;;;;;;10.93;5.55;;;;;;;32.56;23.62;100287.91;5051016;28;20036;-46
2023/10/04 10:05:54;;;;;;;10.35;5.50;;;;;;;32.82;22.90;100292.38;5051710;28;20500;-45
2023/10/04 10:08:21;;;;;;;10.60;5.38;;;;;;;32.52;23.20;100284.22;5050110;28;20027;-44
2023/10/04 10:10:48;;;;;;;10.75;5.78;;;;;;;32.77;22.65;100271.34;5051660;28;20029;-43
2023/10/04 10:13:15;;;;;;;11.40;6.30;;;;;;;32.02;23.05;100271.34;5051534;28;20033;-47
2023/10/04 10:15:42;;;;;;;12.27;5.95;;;;;;;31.39;23.79;100269.25;5051496;28;20047;-45
2023/10/04 10:18:08;;;;;;;9.35;5.60;;;;;;;30.85;24.33;100272.50;5051352;28;20028;-45
2023/10/04 10:20:34;;;;;;;9.65;5.75;;;;;;;31.08;24.25;100267.59;5044824;28;20033;-47
2023/10/04 10:22:59;;;;;;;11.15;5.70;;;;;;;30.87;24.90;100266.69;5036420;28;20024;-47
2023/10/04 10:25:29;;;;;;;10.73;5.88;;;;;;;31.13;24.31;100255.63;5046343;28;20039;-49
2023/10/04 10:28:03;;;;;;;9.85;5.53;;;;;;;31.92;24.09;100253.25;5051730;28;20439;-47
2023/10/04 10:30:32;;;;;;;10.15;5.40;;;;;;;32.08;23.36;100253.50;5050815;28;20029;-43
2023/10/04 10:32:59;;;;;;;9.93;5.55;;;;;;;31.86;23.38;100243.59;5051956;28;20028;-46
2023/10/04 10:35:56;;;;;;;11.60;5.73;;;;;;;32.31;23.52;100240.16;5050942;28;20075;-45
2023/10/04 10:38:43;;;;;;;13.30;5.50;;;;;;;32.47;23.40;100241.16;5051057;28;20029;-45
2023/10/04 10:41:31;;;;;;;12.30;5.55;;;;;;;33.10;23.40;100231.91;5050604;28;20109;-45
2023/10/04 10:44:19;;;;;;;8.70;5.70;;;;;;;33.21;22.96;100235.84;5050768;28;20079;-44
2023/10/04 10:47:00;;;;;;;10.20;5.72;;;;;;;33.56;22.72;100223.50;5050972;28;20032;-44
2023/10/04 10:49:40;;;;;;;11.20;5.95;;;;;;;33.94;21.67;100225.88;5050850;28;20029;-43
2023/10/04 10:52:30;;;;;;;9.50;5.70;;;;;;;33.95;21.79;100221.97;5050920;28;20027;-45
2023/10/04 10:54:57;;;;;;;11.70;5.80;;;;;;;34.01;21.96;100219.75;5050980;28;20396;-42
2023/10/04 10:57:25;;;;;;;10.73;5.63;;;;;;;33.66;22.16;100217.53;5050878;28;20400;-43
2023/10/04 10:59:56;;;;;;;11.65;5.50;;;;;;;33.85;21.90;100208.63;5050627;28;20504;-44
2023/10/04 11:02:22;;;;;;;10.02;6.03;;;;;;;33.91;21.33;100209.19;5051077;28;20036;-47
2023/10/04 11:04:49;;;;;;;10.52;6.13;;;;;;;33.30;22.19;100197.94;5050874;28;20025;-43
2023/10/04 11:07:17;;;;;;;8.05;5.68;;;;;;;33.45;22.26;100201.09;5050829;28;20500;-47
2023/10/04 11:09:48;;;;;;;11.18;5.82;;;;;;;33.96;22.48;100195.16;5051351;28;20393;-43
2023/10/04 11:12:13;;;;;;;12.25;5.75;;;;;;;34.10;21.63;100184.53;5050864;28;20119;-45
2023/10/04 11:14:40;;;;;;;10.80;6.05;;;;;;;33.99;21.72;100191.72;5050595;28;20155;-41
2023/10/04 11:17:05;;;;;;;10.07;5.60;;;;;;;34.17;21.89;100193.03;5050694;28;20021;-45
2023/10/04 11:19:34;;;;;;;10.82;5.93;;;;;;;34.49;21.34;100189.53;5050913;28;20032;-43
2023/10/04 11:22:01;;;;;;;10.57;5.55;;;;;;;34.68;20.60;100180.56;5051087;28;20025;-51
2023/10/04 11:24:26;;;;;;;10.85;5.65;;;;;;;34.79;20.78;100182.44;5050789;28;20035;-46
2023/10/04 11:26:56;;;;;;;10.07;5.25;;;;;;;35.00;21.14;100182.16;5050902;28;20199;-45
2023/10/04 11:29:24;;;;;;;8.93;5.75;;;;;;;34.97;20.72;100177.34;5050791;28;20071;-46
2023/10/04 11:31:49;;;;;;;11.43;5.68;;;;;;;35.33;20.41;100180.97;5050993;28;20163;-44